createdAt,value
2022-08-18T00:00:25.777Z,28.49
2022-08-18T00:00:58.220Z,28.48
2022-08-18T00:01:29.660Z,28.48
2022-08-18T00:02:03.580Z,28.48
2022-08-18T00:02:36.004Z,28.48
2022-08-18T00:03:07.465Z,28.48
2022-08-18T00:04:03.118Z,28.47
2022-08-18T00:04:41.905Z,28.47
2022-08-18T00:05:20.240Z,28.45
2022-08-18T00:05:52.420Z,28.46
2022-08-18T00:06:23.852Z,28.46
2022-08-18T00:06:59.961Z,28.46
2022-08-18T00:07:31.394Z,28.45
2022-08-18T00:08:02.839Z,28.44
2022-08-18T00:08:38.403Z,28.44
2022-08-18T00:09:10.106Z,28.43
2022-08-18T00:09:41.549Z,28.42
2022-08-18T00:10:15.613Z,28.43
2022-08-18T00:10:50.369Z,28.42
2022-08-18T00:11:21.809Z,28.42
2022-08-18T00:11:53.241Z,28.42
2022-08-18T00:12:24.677Z,28.42
2022-08-18T00:12:57.043Z,28.41
2022-08-18T00:13:32.600Z,28.41
2022-08-18T00:14:04.089Z,28.41
2022-08-18T00:14:35.524Z,28.41
2022-08-18T00:15:06.959Z,28.40
2022-08-18T00:15:48.656Z,28.41
2022-08-18T00:16:20.736Z,28.40
2022-08-18T00:16:52.172Z,28.40
2022-08-18T00:17:23.609Z,28.40
2022-08-18T00:17:55.064Z,28.40
2022-08-18T00:18:26.515Z,28.40
2022-08-18T00:18:57.945Z,28.38
2022-08-18T00:19:47.459Z,28.39
2022-08-18T00:20:19.594Z,28.38
2022-08-18T00:20:51.133Z,28.38
2022-08-18T00:21:22.556Z,28.38
2022-08-18T00:21:53.980Z,28.37
2022-08-18T00:22:25.400Z,28.37
2022-08-18T00:22:56.836Z,28.38
2022-08-18T00:23:28.269Z,28.37
2022-08-18T00:23:59.697Z,28.37
2022-08-18T00:24:31.395Z,28.37
2022-08-18T00:25:02.829Z,28.36
2022-08-18T00:25:34.256Z,28.36
2022-08-18T00:26:05.687Z,28.37
2022-08-18T00:26:37.302Z,28.36
2022-08-18T00:27:08.765Z,28.36
2022-08-18T00:27:40.221Z,28.35
2022-08-18T00:28:11.653Z,28.35
2022-08-18T00:28:43.085Z,28.35
2022-08-18T00:29:14.520Z,28.35
2022-08-18T00:29:46.063Z,28.35
2022-08-18T00:30:17.498Z,28.33
2022-08-18T00:30:48.937Z,28.34
2022-08-18T00:31:25.515Z,28.33
2022-08-18T00:31:56.953Z,28.34
2022-08-18T00:32:28.384Z,28.34
2022-08-18T00:32:59.816Z,28.34
2022-08-18T00:33:31.253Z,28.33
2022-08-18T00:34:02.697Z,28.33
2022-08-18T00:34:34.124Z,28.32
2022-08-18T00:35:05.589Z,28.33
2022-08-18T00:35:37.029Z,28.33
2022-08-18T00:36:08.456Z,28.33
2022-08-18T00:36:39.879Z,28.33
2022-08-18T00:37:11.304Z,28.32
2022-08-18T00:37:42.793Z,28.32
2022-08-18T00:38:24.367Z,28.32
2022-08-18T00:38:56.680Z,28.31
2022-08-18T00:39:28.141Z,28.30
2022-08-18T00:40:06.620Z,28.30
2022-08-18T00:40:38.282Z,28.29
2022-08-18T00:41:09.753Z,28.30
2022-08-18T00:41:41.249Z,28.29
2022-08-18T00:42:12.691Z,28.29
2022-08-18T00:42:59.170Z,28.28
2022-08-18T00:43:30.597Z,28.28
2022-08-18T00:44:02.029Z,28.28
2022-08-18T00:44:33.452Z,28.27
2022-08-18T00:45:04.882Z,28.27
2022-08-18T00:45:36.347Z,28.27
2022-08-18T00:46:07.776Z,28.27
2022-08-18T00:46:39.204Z,28.27
2022-08-18T00:47:10.634Z,28.26
2022-08-18T00:47:43.289Z,28.26
2022-08-18T00:48:14.878Z,28.26
2022-08-18T00:48:48.322Z,28.26
2022-08-18T00:49:20.448Z,28.25
2022-08-18T00:49:51.884Z,28.24
2022-08-18T00:50:23.311Z,28.25
2022-08-18T00:50:54.799Z,28.24
2022-08-18T00:51:26.220Z,28.23
2022-08-18T00:51:57.656Z,28.24
2022-08-18T00:52:29.093Z,28.23
2022-08-18T00:53:00.526Z,28.23
2022-08-18T00:53:31.956Z,28.23
2022-08-18T00:54:03.393Z,28.22
2022-08-18T00:54:34.823Z,28.23
2022-08-18T00:55:06.257Z,28.22
2022-08-18T00:55:37.675Z,28.21
2022-08-18T00:56:13.165Z,28.21
2022-08-18T00:56:44.598Z,28.22
2022-08-18T00:57:16.020Z,28.22
2022-08-18T00:57:47.534Z,28.21
2022-08-18T00:58:19.037Z,28.20
2022-08-18T00:58:50.464Z,28.20
2022-08-18T00:59:21.901Z,28.20
2022-08-18T00:59:53.340Z,28.20
2022-08-18T01:00:24.769Z,28.20
2022-08-18T01:00:56.247Z,28.19
2022-08-18T01:01:28.469Z,28.19
2022-08-18T01:01:59.923Z,28.19
2022-08-18T01:02:31.349Z,28.17
2022-08-18T01:03:02.786Z,28.18
2022-08-18T01:03:34.304Z,28.18
2022-08-18T01:04:05.769Z,28.18
2022-08-18T01:04:37.194Z,28.17
2022-08-18T01:05:13.667Z,28.16
2022-08-18T01:05:45.096Z,28.17
2022-08-18T01:06:16.524Z,28.17
2022-08-18T01:06:48.040Z,28.16
2022-08-18T01:07:19.473Z,28.16
2022-08-18T01:07:51.081Z,28.15
2022-08-18T01:08:28.538Z,28.16
2022-08-18T01:09:00.793Z,28.15
2022-08-18T01:09:32.828Z,28.16
2022-08-18T01:10:04.257Z,28.14
2022-08-18T01:10:35.686Z,28.14
2022-08-18T01:11:07.242Z,28.14
2022-08-18T01:11:38.752Z,28.13
2022-08-18T01:12:43.931Z,28.13
2022-08-18T01:13:01.574Z,28.12
2022-08-18T01:13:33.034Z,28.12
2022-08-18T01:14:04.504Z,28.12
2022-08-18T01:14:35.930Z,28.12
2022-08-18T01:15:07.365Z,28.11
2022-08-18T01:15:38.798Z,28.12
2022-08-18T01:16:10.225Z,28.11
2022-08-18T01:16:52.357Z,28.11
2022-08-18T01:17:28.685Z,28.11
2022-08-18T01:18:00.121Z,28.10
2022-08-18T01:18:31.559Z,28.11
2022-08-18T01:19:02.996Z,28.10
2022-08-18T01:19:34.425Z,28.10
2022-08-18T01:20:05.848Z,28.10
2022-08-18T01:20:37.385Z,28.09
2022-08-18T01:21:08.871Z,28.09
2022-08-18T01:21:40.309Z,28.08
2022-08-18T01:22:11.794Z,28.08
2022-08-18T01:22:43.230Z,28.08
2022-08-18T01:23:14.668Z,28.08
2022-08-18T01:23:46.104Z,28.07
2022-08-18T01:24:21.653Z,28.07
2022-08-18T01:24:53.324Z,28.06
2022-08-18T01:25:26.428Z,28.06
2022-08-18T01:25:58.001Z,28.06
2022-08-18T01:26:29.432Z,28.06
2022-08-18T01:27:00.868Z,28.06
2022-08-18T01:27:32.365Z,28.04
2022-08-18T01:28:03.809Z,28.04
2022-08-18T01:28:35.246Z,28.04
2022-08-18T01:29:06.674Z,28.03
2022-08-18T01:29:41.596Z,28.03
2022-08-18T01:30:14.844Z,28.03
2022-08-18T01:30:46.264Z,28.02
2022-08-18T01:31:17.688Z,28.02
2022-08-18T01:31:54.474Z,28.02
2022-08-18T01:32:26.831Z,28.02
2022-08-18T01:32:58.337Z,28.00
2022-08-18T01:33:30.471Z,28.01
2022-08-18T01:34:01.908Z,28.00
2022-08-18T01:34:33.335Z,28.01
2022-08-18T01:35:04.833Z,27.99
2022-08-18T01:35:41.822Z,28.00
2022-08-18T01:36:13.514Z,28.00
2022-08-18T01:36:44.954Z,27.99
2022-08-18T01:37:16.385Z,27.99
2022-08-18T01:37:47.856Z,27.98
2022-08-18T01:38:19.470Z,27.98
2022-08-18T01:38:50.903Z,27.99
2022-08-18T01:41:17.335Z,27.98
2022-08-18T01:41:23.495Z,27.98
2022-08-18T01:41:26.078Z,27.96
2022-08-18T01:41:56.584Z,27.98
2022-08-18T01:42:28.029Z,27.97
2022-08-18T01:42:59.456Z,27.96
2022-08-18T01:43:30.963Z,27.97
2022-08-18T01:44:02.395Z,27.96
2022-08-18T01:44:33.880Z,27.96
2022-08-18T01:45:05.317Z,27.97
2022-08-18T01:45:36.739Z,27.96
2022-08-18T01:46:08.160Z,27.95
2022-08-18T01:46:39.596Z,27.96
2022-08-18T01:47:11.033Z,27.95
2022-08-18T01:47:47.643Z,27.95
2022-08-18T01:48:29.780Z,27.93
2022-08-18T01:49:01.409Z,27.94
2022-08-18T01:49:32.943Z,27.94
2022-08-18T01:50:04.368Z,27.93
2022-08-18T01:50:35.788Z,27.93
2022-08-18T01:51:07.230Z,27.93
2022-08-18T01:51:40.818Z,27.93
2022-08-18T01:52:12.489Z,27.92
2022-08-18T01:52:43.920Z,27.93
2022-08-18T01:53:15.349Z,27.91
2022-08-18T01:53:46.784Z,27.90
2022-08-18T01:54:18.339Z,27.90
2022-08-18T01:54:49.772Z,27.91
2022-08-18T01:55:21.203Z,27.90
2022-08-18T01:55:52.638Z,27.90
2022-08-18T01:56:24.073Z,27.89
2022-08-18T01:56:55.541Z,27.89
2022-08-18T01:57:26.963Z,27.90
2022-08-18T01:57:58.400Z,27.88
2022-08-18T01:58:31.750Z,27.89
2022-08-18T01:59:03.333Z,27.88
2022-08-18T01:59:34.853Z,27.87
2022-08-18T02:00:06.298Z,27.88
2022-08-18T02:00:37.725Z,27.87
2022-08-18T02:01:09.166Z,27.87
2022-08-18T02:01:46.627Z,27.87
2022-08-18T02:02:20.469Z,27.86
2022-08-18T02:02:58.672Z,27.86
2022-08-18T02:03:33.784Z,27.86
2022-08-18T02:04:23.728Z,27.85
2022-08-18T02:04:56.707Z,27.85
2022-08-18T02:05:28.141Z,27.85
2022-08-18T02:06:02.828Z,27.84
2022-08-18T02:06:34.256Z,27.85
2022-08-18T02:07:05.698Z,27.84
2022-08-18T02:07:37.879Z,27.84
2022-08-18T02:08:11.623Z,27.83
2022-08-18T02:08:43.784Z,27.83
2022-08-18T02:09:24.165Z,27.83
2022-08-18T02:09:55.861Z,27.82
2022-08-18T02:10:30.652Z,27.82
2022-08-18T02:11:02.079Z,27.82
2022-08-18T02:11:33.513Z,27.82
2022-08-18T02:12:04.947Z,27.81
2022-08-18T02:12:36.378Z,27.81
2022-08-18T02:13:07.816Z,27.81
2022-08-18T02:13:39.250Z,27.81
2022-08-18T02:14:10.685Z,27.82
2022-08-18T02:14:42.120Z,27.81
2022-08-18T02:15:13.548Z,27.80
2022-08-18T02:15:44.978Z,27.80
2022-08-18T02:16:16.409Z,27.80
2022-08-18T02:16:47.848Z,27.79
2022-08-18T02:17:19.281Z,27.79
2022-08-18T02:17:50.813Z,27.79
2022-08-18T02:18:41.460Z,27.78
2022-08-18T02:19:13.729Z,27.77
2022-08-18T02:19:45.159Z,27.77
2022-08-18T02:20:16.596Z,27.77
2022-08-18T02:20:48.080Z,27.77
2022-08-18T02:21:19.550Z,27.76
2022-08-18T02:21:50.984Z,27.76
2022-08-18T02:22:22.414Z,27.76
2022-08-18T02:22:53.846Z,27.76
2022-08-18T02:23:25.282Z,27.76
2022-08-18T02:23:56.717Z,27.76
2022-08-18T02:24:28.159Z,27.75
2022-08-18T02:24:59.690Z,27.74
2022-08-18T02:25:31.126Z,27.75
2022-08-18T02:26:02.560Z,27.74
2022-08-18T02:26:33.987Z,27.74
2022-08-18T02:27:05.426Z,27.74
2022-08-18T02:27:36.876Z,27.74
2022-08-18T02:28:08.325Z,27.72
2022-08-18T02:28:39.757Z,27.74
2022-08-18T02:29:11.189Z,27.71
2022-08-18T02:29:42.723Z,27.71
2022-08-18T02:30:14.153Z,27.73
2022-08-18T02:30:45.575Z,27.71
2022-08-18T02:31:17.016Z,27.73
2022-08-18T02:31:48.450Z,27.72
2022-08-18T02:32:19.889Z,27.70
2022-08-18T02:32:51.360Z,27.71
2022-08-18T02:33:22.789Z,27.71
2022-08-18T02:33:54.212Z,27.70
2022-08-18T02:34:25.664Z,27.70
2022-08-18T02:34:57.189Z,27.70
2022-08-18T02:35:28.697Z,27.70
2022-08-18T02:36:00.135Z,27.70
2022-08-18T02:36:31.573Z,27.69
2022-08-18T02:37:03.009Z,27.68
2022-08-18T02:37:34.433Z,27.68
2022-08-18T02:38:05.867Z,27.68
2022-08-18T02:38:38.402Z,27.68
2022-08-18T02:39:13.087Z,27.67
2022-08-18T02:39:44.588Z,27.67
2022-08-18T02:40:16.179Z,27.67
2022-08-18T02:40:47.665Z,27.66
2022-08-18T02:41:19.087Z,27.66
2022-08-18T02:41:50.516Z,27.67
2022-08-18T02:42:21.951Z,27.66
2022-08-18T02:42:53.388Z,27.66
2022-08-18T02:43:24.816Z,27.65
2022-08-18T02:43:56.255Z,27.64
2022-08-18T02:44:27.683Z,27.64
2022-08-18T02:44:59.105Z,27.64
2022-08-18T02:45:30.590Z,27.65
2022-08-18T02:46:02.015Z,27.64
2022-08-18T02:46:33.444Z,27.65
2022-08-18T02:47:04.884Z,27.64
2022-08-18T02:47:36.312Z,27.63
2022-08-18T02:48:07.736Z,27.63
2022-08-18T02:48:39.174Z,27.63
2022-08-18T02:49:10.601Z,27.63
2022-08-18T02:49:42.032Z,27.63
2022-08-18T02:50:13.484Z,27.62
2022-08-18T02:50:45.009Z,27.63
2022-08-18T02:51:16.449Z,27.63
2022-08-18T02:51:47.886Z,27.61
2022-08-18T02:52:19.325Z,27.62
2022-08-18T02:52:50.765Z,27.62
2022-08-18T02:53:22.199Z,27.62
2022-08-18T02:53:53.740Z,27.62
2022-08-18T02:54:25.469Z,27.61
2022-08-18T02:54:56.904Z,27.61
2022-08-18T02:55:28.329Z,27.61
2022-08-18T02:55:59.879Z,27.60
2022-08-18T02:56:41.376Z,27.59
2022-08-18T02:57:13.776Z,27.59
2022-08-18T02:57:45.284Z,27.59
2022-08-18T02:58:16.794Z,27.60
2022-08-18T02:58:48.240Z,27.59
2022-08-18T02:59:19.678Z,27.58
2022-08-18T02:59:51.116Z,27.58
2022-08-18T03:00:22.549Z,27.58
2022-08-18T03:00:53.980Z,27.58
2022-08-18T03:01:25.578Z,27.58
2022-08-18T03:02:00.244Z,27.57
2022-08-18T03:02:31.681Z,27.58
2022-08-18T03:03:03.113Z,27.56
2022-08-18T03:03:34.553Z,27.57
2022-08-18T03:04:05.994Z,27.57
2022-08-18T03:04:37.429Z,27.55
2022-08-18T03:05:08.856Z,27.56
2022-08-18T03:05:46.149Z,27.57
2022-08-18T03:06:17.577Z,27.55
2022-08-18T03:06:49.105Z,27.56
2022-08-18T03:07:21.708Z,27.55
2022-08-18T03:07:53.385Z,27.55
2022-08-18T03:08:24.918Z,27.55
2022-08-18T03:08:56.347Z,27.55
2022-08-18T03:09:27.804Z,27.55
2022-08-18T03:10:02.987Z,27.54
2022-08-18T03:10:50.650Z,27.54
2022-08-18T03:11:22.082Z,27.53
2022-08-18T03:11:53.664Z,27.53
2022-08-18T03:12:25.105Z,27.53
2022-08-18T03:12:56.535Z,27.52
2022-08-18T03:13:27.989Z,27.52
2022-08-18T03:13:59.421Z,27.52
2022-08-18T03:14:30.844Z,27.52
2022-08-18T03:15:02.280Z,27.50
2022-08-18T03:15:33.715Z,27.51
2022-08-18T03:16:05.149Z,27.50
2022-08-18T03:16:36.584Z,27.51
2022-08-18T03:17:08.106Z,27.50
2022-08-18T03:17:39.532Z,27.50
2022-08-18T03:18:10.961Z,27.49
2022-08-18T03:18:42.392Z,27.49
2022-08-18T03:19:13.824Z,27.49
2022-08-18T03:19:47.732Z,27.48
2022-08-18T03:20:19.433Z,27.48
2022-08-18T03:21:02.109Z,27.49
2022-08-18T03:21:39.042Z,27.49
2022-08-18T03:22:27.382Z,27.48
2022-08-18T03:23:05.837Z,27.48
2022-08-18T03:23:41.372Z,27.47
2022-08-18T03:24:18.006Z,27.47
2022-08-18T03:24:53.995Z,27.47
2022-08-18T03:25:25.426Z,27.46
2022-08-18T03:25:56.862Z,27.46
2022-08-18T03:26:28.292Z,27.46
2022-08-18T03:26:59.735Z,27.46
2022-08-18T03:27:31.200Z,27.45
2022-08-18T03:28:02.624Z,27.45
2022-08-18T03:28:34.059Z,27.45
2022-08-18T03:29:05.489Z,27.46
2022-08-18T03:29:36.928Z,27.45
2022-08-18T03:30:11.154Z,27.44
2022-08-18T03:30:42.990Z,27.44
2022-08-18T03:31:14.426Z,27.45
2022-08-18T03:31:45.855Z,27.44
2022-08-18T03:32:17.289Z,27.44
2022-08-18T03:32:48.853Z,27.43
2022-08-18T03:33:20.287Z,27.44
2022-08-18T03:33:51.711Z,27.43
2022-08-18T03:34:23.141Z,27.42
2022-08-18T03:34:54.576Z,27.43
2022-08-18T03:35:26.005Z,27.42
2022-08-18T03:35:57.433Z,27.42
2022-08-18T03:36:28.887Z,27.41
2022-08-18T03:37:00.352Z,27.41
2022-08-18T03:37:31.787Z,27.41
2022-08-18T03:38:03.322Z,27.40
2022-08-18T03:38:34.763Z,27.41
2022-08-18T03:39:06.196Z,27.40
2022-08-18T03:39:37.677Z,27.40
2022-08-18T03:40:09.193Z,27.39
2022-08-18T03:40:40.726Z,27.39
2022-08-18T03:41:12.160Z,27.39
2022-08-18T03:41:58.838Z,27.38
2022-08-18T03:42:31.926Z,27.37
2022-08-18T03:43:03.373Z,27.37
2022-08-18T03:43:54.819Z,27.36
2022-08-18T03:44:26.505Z,27.37
2022-08-18T03:44:57.946Z,27.35
2022-08-18T03:45:29.382Z,27.36
2022-08-18T03:46:00.826Z,27.36
2022-08-18T03:46:32.256Z,27.36
2022-08-18T03:47:03.960Z,27.36
2022-08-18T03:47:35.456Z,27.35
2022-08-18T03:48:06.915Z,27.35
2022-08-18T03:48:38.342Z,27.35
2022-08-18T03:49:09.804Z,27.35
2022-08-18T03:49:41.239Z,27.35
2022-08-18T03:50:14.117Z,27.35
2022-08-18T03:50:45.779Z,27.34
2022-08-18T03:51:17.214Z,27.35
2022-08-18T03:51:48.711Z,27.34
2022-08-18T03:52:20.237Z,27.34
2022-08-18T03:52:51.661Z,27.33
2022-08-18T03:53:23.087Z,27.33
2022-08-18T03:53:54.617Z,27.32
2022-08-18T03:54:26.152Z,27.32
2022-08-18T03:54:57.590Z,27.32
2022-08-18T03:55:29.021Z,27.32
2022-08-18T03:56:00.454Z,27.31
2022-08-18T03:56:31.885Z,27.31
2022-08-18T03:57:03.328Z,27.31
2022-08-18T03:57:39.083Z,27.32
2022-08-18T03:58:10.812Z,27.31
2022-08-18T03:58:42.240Z,27.31
2022-08-18T03:59:13.680Z,27.30
2022-08-18T03:59:45.125Z,27.30
2022-08-18T04:00:16.557Z,27.30
2022-08-18T04:00:47.979Z,27.30
2022-08-18T04:01:26.458Z,27.28
2022-08-18T04:01:58.896Z,27.30
2022-08-18T04:02:30.415Z,27.28
2022-08-18T04:03:01.841Z,27.28
2022-08-18T04:03:33.265Z,27.28
2022-08-18T04:04:04.800Z,27.28
2022-08-18T04:04:36.348Z,27.28
2022-08-18T04:05:07.782Z,27.28
2022-08-18T04:05:40.248Z,27.28
2022-08-18T04:06:12.698Z,27.28
2022-08-18T04:06:44.172Z,27.27
2022-08-18T04:07:15.596Z,27.28
2022-08-18T04:07:47.028Z,27.27
2022-08-18T04:08:18.463Z,27.27
2022-08-18T04:08:49.908Z,27.25
2022-08-18T04:09:21.339Z,27.27
2022-08-18T04:09:52.869Z,27.27
2022-08-18T04:10:24.299Z,27.26
2022-08-18T04:10:55.721Z,27.25
2022-08-18T04:11:27.154Z,27.25
2022-08-18T04:11:58.589Z,27.25
2022-08-18T04:12:30.021Z,27.24
2022-08-18T04:13:01.458Z,27.24
2022-08-18T04:13:32.909Z,27.25
2022-08-18T04:14:04.341Z,27.24
2022-08-18T04:14:35.772Z,27.23
2022-08-18T04:15:07.237Z,27.24
2022-08-18T04:15:38.673Z,27.23
2022-08-18T04:16:10.163Z,27.23
2022-08-18T04:16:41.596Z,27.23
2022-08-18T04:17:13.020Z,27.24
2022-08-18T04:17:56.052Z,27.23
2022-08-18T04:18:35.309Z,27.23
2022-08-18T04:19:06.738Z,27.23
2022-08-18T04:19:38.165Z,27.23
2022-08-18T04:20:09.630Z,27.23
2022-08-18T04:20:59.221Z,27.22
2022-08-18T04:21:31.403Z,27.22
2022-08-18T04:22:02.830Z,27.22
2022-08-18T04:22:34.424Z,27.21
2022-08-18T04:23:05.861Z,27.21
2022-08-18T04:23:43.604Z,27.21
2022-08-18T04:24:15.777Z,27.21
2022-08-18T04:24:47.221Z,27.20
2022-08-18T04:25:21.325Z,27.21
2022-08-18T04:25:52.760Z,27.21
2022-08-18T04:26:24.185Z,27.20
2022-08-18T04:26:55.618Z,27.21
2022-08-18T04:27:27.049Z,27.20
2022-08-18T04:27:58.544Z,27.20
2022-08-18T04:28:29.972Z,27.20
2022-08-18T04:29:01.403Z,27.19
2022-08-18T04:29:32.837Z,27.20
2022-08-18T04:30:04.272Z,27.20
2022-08-18T04:30:35.747Z,27.20
2022-08-18T04:31:09.169Z,27.19
2022-08-18T04:31:41.871Z,27.19
2022-08-18T04:32:13.334Z,27.19
2022-08-18T04:32:44.765Z,27.18
2022-08-18T04:33:16.262Z,27.20
2022-08-18T04:33:47.689Z,27.19
2022-08-18T04:34:19.113Z,27.19
2022-08-18T04:34:50.550Z,27.18
2022-08-18T04:35:21.977Z,27.19
2022-08-18T04:35:53.433Z,27.18
2022-08-18T04:36:24.870Z,27.18
2022-08-18T04:36:56.291Z,27.19
2022-08-18T04:37:27.730Z,27.18
2022-08-18T04:37:59.161Z,27.18
2022-08-18T04:38:30.591Z,27.18
2022-08-18T04:39:02.079Z,27.19
2022-08-18T04:39:33.525Z,27.18
2022-08-18T04:40:05.059Z,27.18
2022-08-18T04:40:36.539Z,27.18
2022-08-18T04:41:08.107Z,27.17
2022-08-18T04:41:39.541Z,27.18
2022-08-18T04:42:10.972Z,27.17
2022-08-18T04:42:43.489Z,27.17
2022-08-18T04:43:15.044Z,27.17
2022-08-18T04:43:46.477Z,27.17
2022-08-18T04:44:17.921Z,27.17
2022-08-18T04:44:49.350Z,27.17
2022-08-18T04:45:20.773Z,27.17
2022-08-18T04:45:52.210Z,27.17
2022-08-18T04:46:24.204Z,27.17
2022-08-18T04:46:55.913Z,27.17
2022-08-18T04:47:27.340Z,27.17
2022-08-18T04:47:58.772Z,27.17
2022-08-18T04:48:30.196Z,27.17
2022-08-18T04:49:03.979Z,27.17
2022-08-18T04:49:35.413Z,27.17
2022-08-18T04:50:06.868Z,27.18
2022-08-18T04:50:38.291Z,27.17
2022-08-18T04:51:09.725Z,27.17
2022-08-18T04:52:36.262Z,27.17
2022-08-18T04:52:40.563Z,27.16
2022-08-18T04:53:12.900Z,27.16
2022-08-18T04:53:44.329Z,27.16
2022-08-18T04:54:15.762Z,27.16
2022-08-18T04:54:47.186Z,27.15
2022-08-18T04:55:18.615Z,27.16
2022-08-18T04:55:50.035Z,27.16
2022-08-18T04:56:21.467Z,27.15
2022-08-18T04:56:53.265Z,27.16
2022-08-18T04:57:24.688Z,27.16
2022-08-18T04:57:56.121Z,27.16
2022-08-18T04:58:27.555Z,27.15
2022-08-18T04:58:58.985Z,27.15
2022-08-18T04:59:30.415Z,27.16
2022-08-18T05:00:01.859Z,27.16
2022-08-18T05:00:33.289Z,27.16
2022-08-18T05:01:04.752Z,27.15
2022-08-18T05:01:36.210Z,27.16
2022-08-18T05:02:10.357Z,27.16
2022-08-18T05:02:45.583Z,27.16
2022-08-18T05:03:17.019Z,27.15
2022-08-18T05:03:50.188Z,27.15
2022-08-18T05:04:21.964Z,27.16
2022-08-18T05:04:53.394Z,27.16
2022-08-18T05:05:24.826Z,27.16
2022-08-18T05:05:56.263Z,27.15
2022-08-18T05:06:27.761Z,27.16
2022-08-18T05:06:59.202Z,27.16
2022-08-18T05:07:30.705Z,27.16
2022-08-18T05:08:02.145Z,27.16
2022-08-18T05:08:33.582Z,27.16
2022-08-18T05:09:05.012Z,27.16
2022-08-18T05:09:41.336Z,27.15
2022-08-18T05:10:12.950Z,27.15
2022-08-18T05:10:44.637Z,27.15
2022-08-18T05:11:16.093Z,27.15
2022-08-18T05:11:47.529Z,27.16
2022-08-18T05:12:18.960Z,27.16
2022-08-18T05:12:51.938Z,27.15
2022-08-18T05:13:23.377Z,27.16
2022-08-18T05:13:54.821Z,27.15
2022-08-18T05:14:26.255Z,27.15
2022-08-18T05:14:57.771Z,27.14
2022-08-18T05:15:42.168Z,27.15
2022-08-18T05:16:27.834Z,27.15
2022-08-18T05:16:59.442Z,27.13
2022-08-18T05:17:31.236Z,27.15
2022-08-18T05:18:02.921Z,27.16
2022-08-18T05:18:37.254Z,27.16
2022-08-18T05:19:08.684Z,27.15
2022-08-18T05:19:42.290Z,27.16
2022-08-18T05:20:15.748Z,27.15
2022-08-18T05:20:49.612Z,27.16
2022-08-18T05:21:21.224Z,27.16
2022-08-18T05:21:59.808Z,27.16
2022-08-18T05:22:32.123Z,27.15
2022-08-18T05:23:03.682Z,27.17
2022-08-18T05:23:35.162Z,27.16
2022-08-18T05:24:06.602Z,27.17
2022-08-18T05:24:38.028Z,27.17
2022-08-18T05:25:09.469Z,27.17
2022-08-18T05:25:40.900Z,27.17
2022-08-18T05:26:12.335Z,27.18
2022-08-18T05:26:43.766Z,27.17
2022-08-18T05:27:15.194Z,27.17
2022-08-18T05:27:46.721Z,27.16
2022-08-18T05:28:18.194Z,27.18
2022-08-18T05:28:49.672Z,27.18
2022-08-18T05:29:27.140Z,27.16
2022-08-18T05:30:02.044Z,27.17
2022-08-18T05:30:33.473Z,27.17
2022-08-18T05:31:05.778Z,27.17
2022-08-18T05:31:37.277Z,27.17
2022-08-18T05:32:08.708Z,27.18
2022-08-18T05:32:48.176Z,27.17
2022-08-18T05:33:20.940Z,27.17
2022-08-18T05:33:52.473Z,27.16
2022-08-18T05:34:23.915Z,27.17
2022-08-18T05:34:55.353Z,27.17
2022-08-18T05:35:26.780Z,27.17
2022-08-18T05:35:58.204Z,27.18
2022-08-18T05:36:30.104Z,27.17
2022-08-18T05:37:01.543Z,27.17
2022-08-18T05:37:35.731Z,27.17
2022-08-18T05:38:07.357Z,27.17
2022-08-18T05:38:38.790Z,27.19
2022-08-18T05:39:10.315Z,27.18
2022-08-18T05:39:41.787Z,27.18
2022-08-18T05:40:13.377Z,27.19
2022-08-18T05:40:44.831Z,27.19
2022-08-18T05:41:16.261Z,27.19
2022-08-18T05:41:47.703Z,27.17
2022-08-18T05:42:19.129Z,27.18
2022-08-18T05:42:50.553Z,27.18
2022-08-18T05:43:21.985Z,27.19
2022-08-18T05:43:53.415Z,27.19
2022-08-18T05:44:24.896Z,27.18
2022-08-18T05:44:56.334Z,27.18
2022-08-18T05:45:27.773Z,27.18
2022-08-18T05:45:59.214Z,27.18
2022-08-18T05:46:30.636Z,27.18
2022-08-18T05:47:02.068Z,27.18
2022-08-18T05:47:33.496Z,27.19
2022-08-18T05:48:04.917Z,27.19
2022-08-18T05:48:41.195Z,27.18
2022-08-18T05:49:15.311Z,27.18
2022-08-18T05:49:46.839Z,27.18
2022-08-18T05:50:18.290Z,27.19
2022-08-18T05:50:49.745Z,27.18
2022-08-18T05:51:21.185Z,27.18
2022-08-18T05:51:52.664Z,27.18
2022-08-18T05:52:24.095Z,27.18
2022-08-18T05:52:55.527Z,27.18
2022-08-18T05:53:26.960Z,27.19
2022-08-18T05:54:02.901Z,27.18
2022-08-18T05:54:34.326Z,27.18
2022-08-18T05:55:05.817Z,27.18
2022-08-18T05:55:37.245Z,27.18
2022-08-18T05:56:08.671Z,27.18
2022-08-18T05:56:40.116Z,27.18
2022-08-18T05:57:11.553Z,27.17
2022-08-18T05:57:42.988Z,27.18
2022-08-18T05:58:14.472Z,27.18
2022-08-18T05:58:45.908Z,27.17
2022-08-18T05:59:17.337Z,27.19
2022-08-18T05:59:48.765Z,27.17
2022-08-18T06:00:20.251Z,27.18
2022-08-18T06:00:54.146Z,27.16
2022-08-18T06:01:27.670Z,27.17
2022-08-18T06:01:59.101Z,27.17
2022-08-18T06:02:30.569Z,27.17
2022-08-18T06:03:02.129Z,27.18
2022-08-18T06:03:45.069Z,27.17
2022-08-18T06:04:17.997Z,27.17
2022-08-18T06:04:49.424Z,27.17
2022-08-18T06:05:20.870Z,27.16
2022-08-18T06:05:52.338Z,27.16
2022-08-18T06:06:23.759Z,27.17
2022-08-18T06:06:55.211Z,27.17
2022-08-18T06:07:26.641Z,27.17
2022-08-18T06:08:05.141Z,27.16
2022-08-18T06:08:36.574Z,27.16
2022-08-18T06:09:08.004Z,27.16
2022-08-18T06:09:39.480Z,27.17
2022-08-18T06:10:11.213Z,27.16
2022-08-18T06:10:42.735Z,27.17
2022-08-18T06:11:17.334Z,27.17
2022-08-18T06:11:54.530Z,27.16
2022-08-18T06:12:29.187Z,27.16
2022-08-18T06:13:00.732Z,27.17
2022-08-18T06:13:32.297Z,27.17
2022-08-18T06:14:03.732Z,27.16
2022-08-18T06:14:36.268Z,27.16
2022-08-18T06:15:07.729Z,27.17
2022-08-18T06:15:39.964Z,27.17
2022-08-18T06:16:13.501Z,27.17
2022-08-18T06:16:45.276Z,27.17
2022-08-18T06:17:16.814Z,27.16
2022-08-18T06:17:48.352Z,27.16
2022-08-18T06:18:19.844Z,27.16
2022-08-18T06:18:51.281Z,27.16
2022-08-18T06:19:22.721Z,27.15
2022-08-18T06:19:54.148Z,27.17
2022-08-18T06:20:25.577Z,27.16
2022-08-18T06:20:57.009Z,27.15
2022-08-18T06:21:28.441Z,27.16
2022-08-18T06:21:59.938Z,27.16
2022-08-18T06:22:31.485Z,27.16
2022-08-18T06:23:02.937Z,27.16
2022-08-18T06:23:34.367Z,27.15
2022-08-18T06:24:05.809Z,27.15
2022-08-18T06:24:37.253Z,27.15
2022-08-18T06:25:08.679Z,27.15
2022-08-18T06:25:40.108Z,27.14
2022-08-18T06:26:11.931Z,27.17
2022-08-18T06:26:43.766Z,27.15
2022-08-18T06:27:17.185Z,27.16
2022-08-18T06:27:49.780Z,27.16
2022-08-18T06:28:21.606Z,27.16
2022-08-18T06:28:53.161Z,27.15
2022-08-18T06:29:24.646Z,27.15
2022-08-18T06:29:56.222Z,27.15
2022-08-18T06:30:27.812Z,27.15
2022-08-18T06:30:59.616Z,27.14
2022-08-18T06:31:31.363Z,27.15
2022-08-18T06:32:03.115Z,27.14
2022-08-18T06:32:35.282Z,27.14
2022-08-18T06:33:07.230Z,27.13
2022-08-18T06:33:38.998Z,27.15
2022-08-18T06:34:10.596Z,27.13
2022-08-18T06:34:42.104Z,27.13
2022-08-18T06:35:13.679Z,27.13
2022-08-18T06:35:45.591Z,27.15
2022-08-18T06:36:19.365Z,27.15
2022-08-18T06:36:53.964Z,27.14
2022-08-18T06:37:25.783Z,27.15
2022-08-18T06:37:58.360Z,27.14
2022-08-18T06:38:30.185Z,27.15
2022-08-18T06:39:02.268Z,27.15
2022-08-18T06:39:34.275Z,27.15
2022-08-18T06:40:05.936Z,27.15
2022-08-18T06:40:38.082Z,27.15
2022-08-18T06:41:09.651Z,27.15
2022-08-18T06:42:01.219Z,27.15
2022-08-18T06:42:32.653Z,27.15
2022-08-18T06:43:04.188Z,27.16
2022-08-18T06:43:36.080Z,27.15
2022-08-18T06:44:07.661Z,27.16
2022-08-18T06:44:39.542Z,27.15
2022-08-18T06:45:11.343Z,27.17
2022-08-18T06:45:43.118Z,27.16
2022-08-18T06:46:14.900Z,27.17
2022-08-18T06:46:46.418Z,27.17
2022-08-18T06:47:18.121Z,27.17
2022-08-18T06:47:49.548Z,27.16
2022-08-18T06:48:21.089Z,27.17
2022-08-18T06:48:52.518Z,27.16
2022-08-18T06:49:23.948Z,27.18
2022-08-18T06:49:55.375Z,27.18
2022-08-18T06:50:26.863Z,27.17
2022-08-18T06:50:58.365Z,27.17
2022-08-18T06:51:29.799Z,27.18
2022-08-18T06:52:01.220Z,27.19
2022-08-18T06:52:32.661Z,27.17
2022-08-18T06:53:04.088Z,27.19
2022-08-18T06:53:35.665Z,27.19
2022-08-18T06:54:07.098Z,27.19
2022-08-18T06:54:38.677Z,27.19
2022-08-18T06:55:19.200Z,27.20
2022-08-18T06:55:50.648Z,27.21
2022-08-18T06:56:26.323Z,27.21
2022-08-18T06:56:58.303Z,27.20
2022-08-18T06:57:29.741Z,27.21
2022-08-18T06:58:01.173Z,27.22
2022-08-18T06:58:32.602Z,27.21